Terminal Aerodrome Forecast
Issued by NWS

Home | Current Version | Previous Version | Text Only | Print | Product List | Glossary On
Versions: 1 2 3 4 5 6 7 8 9 10 11 12 13 14
190
FTAK31 PAJN 152342 RRB
TAFAKT
TAF
PAKT 152342Z 1600/1624 14008KT P6SM BKN035 OVC050
     FM160800 15013G23KT 6SM -RA BR BKN030 OVC050
     FM161500 14018G28KT 4SM RA BR SCT008 OVC015 PROB30 1618/1624
      2SM RA BR BKN008 OVC015
      AMD LTD TO CLD VIS AND WIND 1606/1615=

USA.gov is the U.S. government's official web portal to all federal, state and local government web resources and services.